createdAt,value
2022-12-05T00:00:14.687Z,10.40
2022-12-05T00:02:45.559Z,11.07
2022-12-05T00:05:16.559Z,10.30
2022-12-05T00:07:48.007Z,10.27
2022-12-05T00:10:19.052Z,10.40
2022-12-05T00:12:49.963Z,10.30
2022-12-05T00:15:20.868Z,10.70
2022-12-05T00:17:51.750Z,10.83
2022-12-05T00:20:22.643Z,9.97
2022-12-05T00:22:53.542Z,9.70
2022-12-05T00:25:24.464Z,10.10
2022-12-05T00:27:55.411Z,11.00
2022-12-05T00:30:26.281Z,10.83
2022-12-05T00:32:58.162Z,10.63
2022-12-05T00:35:33.474Z,10.90
2022-12-05T00:38:04.465Z,10.53
2022-12-05T00:40:36.955Z,9.77
2022-12-05T00:43:07.832Z,10.73
2022-12-05T00:45:38.928Z,9.73
2022-12-05T00:48:09.801Z,11.13
2022-12-05T00:50:40.676Z,10.57
2022-12-05T00:53:11.576Z,11.50
2022-12-05T00:55:42.444Z,10.00
2022-12-05T00:58:13.310Z,10.37
2022-12-05T01:00:44.294Z,9.60
2022-12-05T01:03:15.228Z,10.60
2022-12-05T01:05:46.295Z,9.50
2022-12-05T01:08:17.211Z,10.17
2022-12-05T01:10:56.075Z,9.83
2022-12-05T01:13:28.276Z,10.77
2022-12-05T01:15:59.257Z,10.53
2022-12-05T01:18:33.133Z,10.37
2022-12-05T01:21:06.183Z,10.27
2022-12-05T01:23:38.192Z,9.23
2022-12-05T01:26:13.477Z,8.87
2022-12-05T01:28:45.023Z,10.30
2022-12-05T01:31:25.666Z,9.47
2022-12-05T01:33:59.143Z,9.70
2022-12-05T01:36:30.535Z,9.63
2022-12-05T01:39:01.616Z,10.83
2022-12-05T01:41:36.143Z,9.10
2022-12-05T01:44:12.989Z,8.97
2022-12-05T01:46:50.321Z,8.60
2022-12-05T01:49:23.078Z,9.37
2022-12-05T01:51:58.462Z,9.43
2022-12-05T01:54:30.060Z,9.20
2022-12-05T01:57:04.788Z,8.70
2022-12-05T01:59:41.525Z,9.57
2022-12-05T02:02:13.466Z,8.03
2022-12-05T02:05:06.062Z,8.70
2022-12-05T02:07:40.047Z,8.10
2022-12-05T02:10:11.753Z,9.83
2022-12-05T02:12:44.360Z,8.20
2022-12-05T02:15:51.082Z,8.83
2022-12-05T02:19:10.252Z,8.87
2022-12-05T02:22:13.052Z,8.93
2022-12-05T02:25:11.497Z,7.80
2022-12-05T02:27:50.965Z,8.30
2022-12-05T02:30:27.072Z,8.10
2022-12-05T02:33:07.555Z,8.13
2022-12-05T02:35:50.584Z,8.53
2022-12-05T02:38:40.275Z,8.30
2022-12-05T02:41:35.741Z,7.70
2022-12-05T02:44:16.945Z,7.83
2022-12-05T02:46:52.273Z,6.90
2022-12-05T02:49:30.699Z,7.57
2022-12-05T02:52:07.710Z,8.87
2022-12-05T02:54:42.549Z,7.20
2022-12-05T02:57:15.244Z,7.90
2022-12-05T02:59:46.123Z,7.97
2022-12-05T03:02:33.837Z,9.30
2022-12-05T03:05:40.118Z,8.40
2022-12-05T03:08:19.066Z,7.50
2022-12-05T03:10:53.211Z,8.57
2022-12-05T03:13:56.183Z,8.73
2022-12-05T03:16:47.710Z,9.03
2022-12-05T03:19:32.943Z,9.17
2022-12-05T03:22:35.473Z,9.00
2022-12-05T03:25:07.568Z,8.73
2022-12-05T03:27:53.952Z,7.90
2022-12-05T03:30:25.039Z,6.80
2022-12-05T03:33:18.609Z,7.77
2022-12-05T03:35:58.749Z,9.20
2022-12-05T03:38:46.152Z,8.40
2022-12-05T03:41:49.140Z,8.80
2022-12-05T03:44:29.748Z,7.57
2022-12-05T03:47:41.517Z,7.40
2022-12-05T03:50:35.234Z,8.30
2022-12-05T03:53:21.558Z,8.70
2022-12-05T03:56:07.802Z,9.83
2022-12-05T03:58:51.606Z,9.43
2022-12-05T04:01:27.085Z,9.10
2022-12-05T04:04:21.459Z,9.80
2022-12-05T04:06:56.331Z,9.47
2022-12-05T04:09:48.382Z,10.00
2022-12-05T04:12:27.621Z,8.40
2022-12-05T04:15:05.676Z,8.83
2022-12-05T04:17:59.714Z,9.13
2022-12-05T04:21:00.689Z,9.83
2022-12-05T04:23:33.255Z,10.10
2022-12-05T04:26:34.826Z,8.67
2022-12-05T04:29:19.105Z,9.40
2022-12-05T04:31:57.916Z,9.67
2022-12-05T04:34:30.389Z,9.80
2022-12-05T04:37:09.828Z,8.90
2022-12-05T04:39:50.518Z,9.57
2022-12-05T04:42:26.619Z,8.87
2022-12-05T04:45:06.663Z,8.67
2022-12-05T04:47:46.904Z,9.40
2022-12-05T04:50:18.952Z,10.57
2022-12-05T04:52:53.859Z,9.83
2022-12-05T04:55:28.114Z,9.37
2022-12-05T04:58:23.253Z,9.13
2022-12-05T05:01:25.739Z,8.93
2022-12-05T05:04:41.443Z,8.40
2022-12-05T05:07:14.183Z,9.27
2022-12-05T05:09:48.446Z,10.00
2022-12-05T05:12:19.527Z,9.53
2022-12-05T05:14:50.476Z,9.67
2022-12-05T05:17:22.470Z,10.00
2022-12-05T05:20:16.894Z,10.10
2022-12-05T05:22:52.110Z,9.03
2022-12-05T05:25:24.991Z,9.27
2022-12-05T05:27:56.893Z,9.17
2022-12-05T05:30:29.085Z,9.87
2022-12-05T05:33:00.824Z,9.07
2022-12-05T05:35:31.817Z,9.77
2022-12-05T05:38:02.925Z,8.80
2022-12-05T05:40:37.263Z,8.70
2022-12-05T05:43:08.149Z,10.47
2022-12-05T05:45:39.055Z,9.80
2022-12-05T05:48:09.941Z,10.40
2022-12-05T05:50:40.819Z,8.80
2022-12-05T05:53:11.752Z,9.73
2022-12-05T05:55:43.824Z,8.73
2022-12-05T05:58:14.751Z,10.47
2022-12-05T06:00:46.779Z,9.53
2022-12-05T06:03:17.787Z,10.13
2022-12-05T06:06:01.317Z,8.93
2022-12-05T06:08:34.622Z,10.07
2022-12-05T06:11:11.658Z,9.13
2022-12-05T06:13:42.561Z,9.83
2022-12-05T06:16:16.574Z,10.27
2022-12-05T06:18:48.667Z,10.57
2022-12-05T06:21:21.104Z,9.60
2022-12-05T06:23:52.914Z,10.10
2022-12-05T06:26:42.425Z,8.83
2022-12-05T06:29:13.322Z,9.70
2022-12-05T06:31:44.235Z,9.20
2022-12-05T06:34:15.342Z,10.17
2022-12-05T06:36:46.219Z,8.23
2022-12-05T06:39:17.181Z,9.63
2022-12-05T06:41:48.092Z,10.37
2022-12-05T06:44:19.145Z,8.77
2022-12-05T06:46:54.478Z,10.97
2022-12-05T06:49:31.707Z,9.30
2022-12-05T06:52:04.695Z,9.00
2022-12-05T06:54:35.841Z,9.00
2022-12-05T06:57:06.696Z,8.17
2022-12-05T06:59:37.573Z,8.93
2022-12-05T07:02:11.286Z,9.87
2022-12-05T07:04:42.252Z,10.27
2022-12-05T07:07:13.601Z,9.60
2022-12-05T07:09:51.353Z,9.27
2022-12-05T07:12:22.293Z,10.30
2022-12-05T07:14:53.223Z,9.43
2022-12-05T07:17:24.201Z,8.67
2022-12-05T07:19:55.323Z,10.40
2022-12-05T07:22:26.701Z,10.13
2022-12-05T07:24:57.690Z,8.87
2022-12-05T07:27:28.732Z,9.93
2022-12-05T07:29:59.885Z,9.80
2022-12-05T07:32:34.654Z,9.87
2022-12-05T07:35:05.969Z,10.30
2022-12-05T07:37:37.249Z,9.00
2022-12-05T07:40:09.086Z,9.33
2022-12-05T07:42:39.944Z,9.23
2022-12-05T07:45:11.139Z,9.10
2022-12-05T07:47:42.138Z,10.50
2022-12-05T07:50:13.981Z,7.93
2022-12-05T07:52:44.831Z,10.50
2022-12-05T07:55:15.760Z,10.50
2022-12-05T07:57:46.633Z,9.77
2022-12-05T08:00:18.554Z,9.60
2022-12-05T08:02:49.457Z,9.87
2022-12-05T08:05:20.383Z,10.33
2022-12-05T08:07:51.294Z,9.60
2022-12-05T08:10:22.203Z,10.50
2022-12-05T08:12:55.765Z,8.93
2022-12-05T08:15:26.679Z,9.30
2022-12-05T08:17:57.631Z,9.53
2022-12-05T08:20:28.579Z,9.73
2022-12-05T08:22:59.528Z,8.83
2022-12-05T08:25:30.672Z,8.63
2022-12-05T08:28:01.609Z,8.90
2022-12-05T08:30:34.151Z,10.17
2022-12-05T08:33:05.117Z,9.40
2022-12-05T08:35:37.796Z,10.33
2022-12-05T08:38:08.673Z,8.90
2022-12-05T08:40:39.581Z,9.67
2022-12-05T08:43:10.453Z,9.87
2022-12-05T08:45:41.359Z,9.03
2022-12-05T08:48:12.324Z,9.23
2022-12-05T08:50:43.200Z,9.63
2022-12-05T08:53:14.092Z,9.50
2022-12-05T08:55:48.135Z,8.83
2022-12-05T08:58:19.045Z,9.20
2022-12-05T09:00:49.931Z,10.67
2022-12-05T09:03:20.826Z,8.83
2022-12-05T09:05:54.804Z,9.47
2022-12-05T09:08:25.938Z,10.33
2022-12-05T09:10:56.838Z,8.67
2022-12-05T09:13:27.709Z,9.50
2022-12-05T09:15:58.701Z,9.63
2022-12-05T09:18:29.616Z,8.77
2022-12-05T09:21:13.803Z,7.87
2022-12-05T09:23:45.638Z,9.27
2022-12-05T09:26:20.662Z,8.90
2022-12-05T09:28:53.109Z,7.37
2022-12-05T09:31:27.258Z,8.50
2022-12-05T09:33:58.675Z,8.30
2022-12-05T09:36:32.072Z,9.23
2022-12-05T09:39:06.430Z,8.87
2022-12-05T09:42:21.049Z,10.20
2022-12-05T09:45:29.364Z,7.67
2022-12-05T09:48:24.483Z,7.80
2022-12-05T09:51:02.693Z,8.13
2022-12-05T09:53:38.125Z,8.40
2022-12-05T09:56:27.849Z,7.03
2022-12-05T09:59:02.540Z,8.43
2022-12-05T10:01:59.004Z,8.63
2022-12-05T10:04:51.662Z,8.13
2022-12-05T10:07:44.204Z,7.97
2022-12-05T10:10:44.433Z,7.87
2022-12-05T10:13:45.280Z,8.80
2022-12-05T10:16:46.098Z,7.83
2022-12-05T10:19:26.009Z,8.60
2022-12-05T10:22:18.899Z,7.60
2022-12-05T10:25:04.078Z,8.67
2022-12-05T10:27:41.100Z,8.80
2022-12-05T10:30:24.765Z,7.33
2022-12-05T10:33:09.727Z,7.90
2022-12-05T10:35:45.003Z,8.30
2022-12-05T10:38:43.689Z,7.67
2022-12-05T10:41:15.470Z,8.03
2022-12-05T10:43:46.781Z,8.07
2022-12-05T10:46:18.429Z,8.77
2022-12-05T10:48:49.363Z,11.53
2022-12-05T10:51:30.089Z,8.50
2022-12-05T10:54:13.919Z,9.07
2022-12-05T10:56:49.565Z,8.37
2022-12-05T10:59:26.784Z,9.40
2022-12-05T11:01:59.761Z,8.53
2022-12-05T11:04:43.491Z,8.10
2022-12-05T11:07:48.480Z,9.90
2022-12-05T11:10:35.203Z,8.30
2022-12-05T11:13:25.125Z,9.20
2022-12-05T11:15:56.092Z,9.70
2022-12-05T11:18:31.798Z,10.87
2022-12-05T11:21:14.648Z,9.67
2022-12-05T11:23:46.414Z,8.13
2022-12-05T11:26:36.960Z,8.63
2022-12-05T11:29:32.573Z,8.60
2022-12-05T11:32:08.764Z,8.87
2022-12-05T11:34:54.407Z,9.23
2022-12-05T11:37:32.527Z,9.03
2022-12-05T11:40:18.112Z,9.00
2022-12-05T11:43:18.225Z,9.07
2022-12-05T11:46:14.331Z,9.47
2022-12-05T11:49:09.437Z,8.90
2022-12-05T11:51:56.005Z,8.70
2022-12-05T11:55:07.432Z,8.67
2022-12-05T11:58:00.779Z,9.03
2022-12-05T12:01:00.445Z,9.40
2022-12-05T12:03:55.534Z,8.60
2022-12-05T12:06:34.057Z,8.87
2022-12-05T12:09:29.895Z,8.60
2022-12-05T12:12:36.779Z,8.60
2022-12-05T12:15:44.805Z,9.67
2022-12-05T12:18:53.063Z,10.20
2022-12-05T12:21:41.814Z,8.80
2022-12-05T12:24:52.495Z,8.50
2022-12-05T12:28:02.946Z,9.03
2022-12-05T12:31:08.932Z,8.90
2022-12-05T12:33:54.801Z,8.67
2022-12-05T12:36:49.522Z,9.23
2022-12-05T12:39:50.771Z,9.60
2022-12-05T12:42:39.262Z,8.77
2022-12-05T12:46:11.192Z,9.47
2022-12-05T12:49:10.318Z,10.30
2022-12-05T12:51:52.975Z,9.80
2022-12-05T12:55:03.443Z,10.10
2022-12-05T12:58:11.515Z,10.10
2022-12-05T13:01:05.297Z,9.97
2022-12-05T13:03:51.594Z,10.03
2022-12-05T13:06:39.225Z,8.97
2022-12-05T13:09:20.884Z,10.30
2022-12-05T13:11:54.314Z,10.37
2022-12-05T13:14:27.629Z,9.90
2022-12-05T13:17:00.942Z,9.13
2022-12-05T13:19:46.835Z,10.10
2022-12-05T13:22:21.272Z,9.87
2022-12-05T13:24:53.686Z,10.90
2022-12-05T13:27:28.098Z,9.20
2022-12-05T13:30:10.820Z,9.77
2022-12-05T13:32:44.556Z,9.47
2022-12-05T13:35:52.141Z,9.70
2022-12-05T13:38:59.518Z,9.60
2022-12-05T13:42:04.908Z,9.67
2022-12-05T13:44:44.856Z,9.47
2022-12-05T13:47:46.255Z,9.80
2022-12-05T13:50:31.614Z,10.93
2022-12-05T13:53:19.756Z,9.70
2022-12-05T13:56:14.882Z,10.73
2022-12-05T13:58:50.096Z,10.47
2022-12-05T14:01:27.408Z,9.20
2022-12-05T14:04:02.272Z,9.67
2022-12-05T14:06:38.160Z,9.00
2022-12-05T14:09:18.065Z,9.30
2022-12-05T14:12:10.716Z,9.87
2022-12-05T14:15:00.740Z,9.00
2022-12-05T14:17:42.668Z,13.30
2022-12-05T14:20:26.215Z,10.70
2022-12-05T14:23:21.489Z,9.40
2022-12-05T14:26:32.159Z,9.57
2022-12-05T14:29:37.836Z,9.80
2022-12-05T14:32:36.017Z,9.30
2022-12-05T14:35:51.875Z,8.83
2022-12-05T14:38:32.615Z,10.40
2022-12-05T14:41:44.759Z,10.20
2022-12-05T14:44:19.394Z,9.80
2022-12-05T14:46:50.610Z,8.60
2022-12-05T14:50:01.907Z,8.50
2022-12-05T14:52:34.788Z,9.73
2022-12-05T14:55:16.300Z,8.20
2022-12-05T14:57:49.694Z,10.03
2022-12-05T15:00:23.252Z,9.27
2022-12-05T15:02:55.764Z,9.47
2022-12-05T15:05:32.153Z,8.70
2022-12-05T15:08:04.892Z,9.40
2022-12-05T15:10:38.891Z,9.30
2022-12-05T15:13:20.557Z,9.60
2022-12-05T15:16:14.852Z,8.87
2022-12-05T15:18:54.930Z,8.13
2022-12-05T15:21:33.205Z,9.17
2022-12-05T15:24:13.517Z,9.80
2022-12-05T15:26:57.443Z,9.17
2022-12-05T15:29:32.814Z,9.53
2022-12-05T15:32:18.499Z,9.60
2022-12-05T15:35:08.973Z,9.13
2022-12-05T15:37:55.533Z,10.37
2022-12-05T15:40:27.923Z,10.00
2022-12-05T15:42:59.144Z,10.80
2022-12-05T15:45:31.933Z,9.50
2022-12-05T15:48:05.498Z,10.03
2022-12-05T15:50:49.983Z,8.80
2022-12-05T15:53:44.601Z,9.57
2022-12-05T15:56:30.175Z,9.90
2022-12-05T15:59:05.825Z,8.90
2022-12-05T16:01:57.341Z,10.37
2022-12-05T16:04:48.554Z,9.47
2022-12-05T16:07:21.483Z,9.97
2022-12-05T16:09:58.247Z,10.30
2022-12-05T16:12:40.829Z,9.40
2022-12-05T16:15:26.865Z,8.87
2022-12-05T16:18:01.531Z,9.60
2022-12-05T16:20:35.915Z,9.80
2022-12-05T16:23:30.011Z,9.80
2022-12-05T16:26:13.577Z,10.20
2022-12-05T16:29:01.318Z,9.10
2022-12-05T16:31:34.195Z,9.90
2022-12-05T16:34:07.550Z,10.13
2022-12-05T16:36:50.316Z,11.17
2022-12-05T16:39:22.686Z,9.80
2022-12-05T16:41:54.613Z,9.50
2022-12-05T16:44:28.621Z,10.97
2022-12-05T16:47:02.535Z,11.23
2022-12-05T16:49:36.408Z,11.03
2022-12-05T16:52:12.742Z,11.67
2022-12-05T16:54:48.789Z,12.37
2022-12-05T16:57:19.911Z,12.63
2022-12-05T16:59:50.897Z,13.23
2022-12-05T17:02:21.931Z,12.20
2022-12-05T17:05:03.213Z,12.90
2022-12-05T17:07:34.567Z,13.37
2022-12-05T17:10:06.917Z,12.63
2022-12-05T17:12:37.846Z,12.97
2022-12-05T17:15:18.246Z,13.37
2022-12-05T17:17:51.797Z,13.03
2022-12-05T17:20:22.786Z,12.23
2022-12-05T17:22:53.850Z,10.60
2022-12-05T17:25:36.385Z,11.43
2022-12-05T17:28:10.280Z,12.40
2022-12-05T17:30:41.340Z,11.80
2022-12-05T17:33:19.804Z,11.40
2022-12-05T17:35:52.062Z,12.70
2022-12-05T17:38:23.282Z,12.73
2022-12-05T17:40:57.100Z,11.70
2022-12-05T17:43:27.971Z,11.57
2022-12-05T17:46:03.945Z,11.77
2022-12-05T17:48:34.994Z,11.20
2022-12-05T17:51:11.335Z,12.77
2022-12-05T17:53:44.551Z,12.80
2022-12-05T17:56:16.358Z,13.53
2022-12-05T17:58:47.396Z,12.40
2022-12-05T18:01:21.225Z,13.07
2022-12-05T18:03:52.214Z,12.97
2022-12-05T18:06:23.747Z,13.33
2022-12-05T18:08:54.684Z,14.17
2022-12-05T18:11:28.261Z,11.60
2022-12-05T18:14:00.034Z,12.10
2022-12-05T18:16:31.038Z,15.80
2022-12-05T18:19:02.017Z,13.80
2022-12-05T18:21:32.932Z,12.40
2022-12-05T18:24:04.145Z,13.20
2022-12-05T18:26:35.080Z,13.80
2022-12-05T18:29:06.028Z,12.57
2022-12-05T18:31:38.475Z,12.13
2022-12-05T18:34:09.612Z,12.77
2022-12-05T18:36:41.122Z,14.07
2022-12-05T18:39:14.664Z,12.43
2022-12-05T18:41:45.621Z,11.90
2022-12-05T18:44:16.628Z,11.87
2022-12-05T18:46:47.595Z,12.83
2022-12-05T18:49:18.581Z,13.00
2022-12-05T18:51:50.093Z,13.47
2022-12-05T18:54:21.385Z,13.17
2022-12-05T18:56:52.909Z,12.20
2022-12-05T18:59:23.940Z,12.00
2022-12-05T19:01:55.654Z,12.97
2022-12-05T19:04:29.980Z,12.30
2022-12-05T19:07:02.033Z,14.00
2022-12-05T19:09:33.390Z,13.83
2022-12-05T19:12:04.442Z,13.77
2022-12-05T19:14:35.375Z,14.80
2022-12-05T19:17:06.327Z,13.30
2022-12-05T19:19:37.318Z,15.30
2022-12-05T19:22:08.347Z,14.20
2022-12-05T19:24:39.288Z,12.63
2022-12-05T19:27:13.327Z,14.30
2022-12-05T19:29:44.318Z,14.63
2022-12-05T19:32:15.353Z,14.00
2022-12-05T19:34:48.397Z,14.17
2022-12-05T19:37:21.648Z,14.30
2022-12-05T19:39:52.623Z,14.87
2022-12-05T19:42:26.481Z,14.53
2022-12-05T19:44:57.393Z,14.77
2022-12-05T19:47:28.276Z,15.10
2022-12-05T19:49:59.503Z,16.57
2022-12-05T19:52:30.655Z,16.67
2022-12-05T19:55:01.672Z,14.20
2022-12-05T19:57:32.638Z,16.33
2022-12-05T20:00:04.811Z,15.47
2022-12-05T20:02:40.017Z,15.77
2022-12-05T20:05:13.368Z,15.73
2022-12-05T20:07:44.329Z,16.10
2022-12-05T20:10:15.502Z,14.93
2022-12-05T20:13:24.244Z,16.17
2022-12-05T20:16:07.562Z,16.03
2022-12-05T20:18:40.655Z,16.57
2022-12-05T20:21:18.563Z,15.67
2022-12-05T20:23:51.706Z,15.40
2022-12-05T20:26:27.276Z,16.43
2022-12-05T20:29:00.484Z,16.23
2022-12-05T20:31:42.631Z,14.50
2022-12-05T20:34:15.528Z,13.77
2022-12-05T20:36:46.533Z,13.97
2022-12-05T20:39:17.952Z,15.57
2022-12-05T20:41:52.258Z,14.60
2022-12-05T20:44:23.194Z,15.07
2022-12-05T20:46:54.487Z,13.77
2022-12-05T20:49:25.366Z,14.57
2022-12-05T20:51:56.788Z,14.27
2022-12-05T20:54:27.862Z,13.97
2022-12-05T20:56:58.895Z,13.43
2022-12-05T20:59:30.083Z,15.03
2022-12-05T21:02:01.195Z,18.27
2022-12-05T21:04:32.630Z,17.60
2022-12-05T21:07:03.559Z,18.67
2022-12-05T21:09:35.910Z,17.40
2022-12-05T21:12:06.861Z,18.50
2022-12-05T21:14:37.733Z,16.17
2022-12-05T21:17:08.694Z,17.43
2022-12-05T21:19:39.614Z,18.53
2022-12-05T21:22:10.500Z,19.13
2022-12-05T21:24:41.805Z,18.60
2022-12-05T21:27:14.896Z,18.90
2022-12-05T21:29:45.819Z,18.27
2022-12-05T21:32:16.755Z,18.63
2022-12-05T21:34:47.646Z,18.20
2022-12-05T21:37:18.532Z,17.10
2022-12-05T21:39:49.400Z,16.07
2022-12-05T21:42:20.323Z,15.83
2022-12-05T21:44:51.198Z,14.90
2022-12-05T21:47:22.246Z,15.50
2022-12-05T21:49:54.588Z,16.20
2022-12-05T21:52:25.457Z,17.00
2022-12-05T21:54:56.387Z,15.20
2022-12-05T21:57:32.565Z,14.63
2022-12-05T22:00:04.032Z,13.27
2022-12-05T22:02:35.410Z,13.93
2022-12-05T22:05:06.928Z,13.90
2022-12-05T22:07:37.827Z,13.63
2022-12-05T22:10:09.220Z,13.37
2022-12-05T22:12:40.202Z,14.30
2022-12-05T22:15:11.865Z,13.33
2022-12-05T22:17:42.903Z,14.37
2022-12-05T22:20:13.808Z,15.10
2022-12-05T22:22:44.696Z,14.33
2022-12-05T22:25:15.665Z,13.30
2022-12-05T22:27:46.520Z,13.67
2022-12-05T22:30:20.318Z,15.33
2022-12-05T22:32:53.808Z,14.10
2022-12-05T22:35:24.717Z,13.47
2022-12-05T22:37:55.588Z,14.57
2022-12-05T22:40:26.482Z,14.67
2022-12-05T22:42:57.348Z,14.10
2022-12-05T22:45:28.235Z,14.07
2022-12-05T22:47:59.162Z,13.57
2022-12-05T22:50:30.106Z,14.17
2022-12-05T22:53:03.529Z,14.10
2022-12-05T22:55:34.498Z,14.40
2022-12-05T22:58:05.365Z,13.30
2022-12-05T23:00:37.152Z,13.63
2022-12-05T23:03:08.522Z,15.07
2022-12-05T23:05:41.512Z,12.93
2022-12-05T23:08:12.811Z,13.70
2022-12-05T23:10:43.769Z,13.90
2022-12-05T23:13:14.810Z,12.67
2022-12-05T23:15:46.002Z,13.23
2022-12-05T23:18:16.956Z,12.77
2022-12-05T23:20:47.894Z,13.10
2022-12-05T23:23:18.821Z,15.43
2022-12-05T23:25:49.837Z,12.83
2022-12-05T23:28:23.745Z,13.17
2022-12-05T23:30:54.746Z,13.00
2022-12-05T23:33:26.564Z,12.60
2022-12-05T23:36:00.759Z,13.13
2022-12-05T23:38:31.707Z,14.40
2022-12-05T23:41:05.872Z,13.60
2022-12-05T23:43:37.417Z,12.40
2022-12-05T23:46:09.352Z,13.03
2022-12-05T23:48:40.858Z,13.57
2022-12-05T23:51:24.550Z,12.50
2022-12-05T23:53:58.874Z,12.63
2022-12-05T23:56:32.634Z,13.73
2022-12-05T23:59:06.120Z,12.13
